Time,TemperatureF,DewpointF,PressureIn,WindDirection,WindDirectionDegrees,WindSpeedMPH,WindSpeedGustMPH,Humidity,HourlyPrecipIn,Conditions,Clouds,dailyrainin,SoftwareType,DateUTC
2013-03-02 00:00:00,24.4,-9.0,30.24,NW,314,0.0,0.0,22,0.00,OVC,,0.00,WeatherDisplay:10.37,2013-03-02 06:00:00,
2013-03-02 00:05:00,24.4,-9.0,30.24,NW,311,0.0,0.0,22,0.00,OVC,,0.00,WeatherDisplay:10.37,2013-03-02 06:05:00,
2013-03-02 00:10:00,24.4,-7.3,30.24,NW,312,0.0,0.0,24,0.00,OVC,,0.00,WeatherDisplay:10.37,2013-03-02 06:10:00,
2013-03-02 00:15:00,24.4,-7.3,30.24,NW,312,0.0,0.0,24,0.00,OVC,,0.00,WeatherDisplay:10.37,2013-03-02 06:15:00,
2013-03-02 00:20:00,24.4,-7.3,30.24,NW,307,0.0,0.0,24,0.00,OVC,,0.00,WeatherDisplay:10.37,2013-03-02 06:20:00,
2013-03-02 00:25:00,24.4,-7.3,30.24,WNW,293,0.0,0.0,24,0.00,OVC,,0.00,WeatherDisplay:10.37,2013-03-02 06:25:00,
2013-03-02 00:30:00,24.4,-7.3,30.24,WNW,292,0.0,0.0,24,0.00,OVC,,0.00,WeatherDisplay:10.37,2013-03-02 06:30:00,
2013-03-02 00:35:00,24.4,-7.3,30.24,WNW,297,2.3,0.0,24,0.00,OVC,,0.00,WeatherDisplay:10.37,2013-03-02 06:35:00,
2013-03-02 00:40:00,24.3,-7.4,30.24,WNW,297,0.0,0.0,24,0.00,OVC,,0.00,WeatherDisplay:10.37,2013-03-02 06:40:00,
2013-03-02 00:45:00,24.3,-5.0,30.24,NW,318,0.0,0.0,27,0.00,OVC,,0.00,WeatherDisplay:10.37,2013-03-02 06:45:00,
2013-03-02 00:50:00,24.3,-5.0,30.24,NW,317,0.0,0.0,27,0.00,OVC,,0.00,WeatherDisplay:10.37,2013-03-02 06:50:00,
2013-03-02 00:55:00,24.3,-5.0,30.24,NW,320,0.0,0.0,27,0.00,OVC,,0.00,WeatherDisplay:10.37,2013-03-02 06:55:00,
2013-03-02 01:00:00,24.3,-5.0,30.24,NNW,331,3.5,0.0,27,0.00,OVC,,0.00,WeatherDisplay:10.37,2013-03-02 07:00:00,
2013-03-02 01:05:00,24.3,-3.5,30.24,NNW,346,0.0,0.0,29,0.00,OVC,,0.00,WeatherDisplay:10.37,2013-03-02 07:05:00,
2013-03-02 01:10:00,24.3,-3.5,30.24,WNW,287,2.3,0.0,29,0.00,OVC,,0.00,WeatherDisplay:10.37,2013-03-02 07:10:00,
2013-03-02 01:16:00,24.3,-1.4,30.24,NW,305,3.5,0.0,32,0.00,OVC,,0.00,WeatherDisplay:10.37,2013-03-02 07:16:00,
2013-03-02 01:21:00,24.1,-3.6,30.24,WNW,292,5.8,5.8,29,0.00,OVC,,0.00,WeatherDisplay:10.37,2013-03-02 07:21:00,
2013-03-02 01:26:00,24.1,-3.6,30.24,WNW,300,0.0,0.0,29,0.00,OVC,,0.00,WeatherDisplay:10.37,2013-03-02 07:26:00,
2013-03-02 01:31:00,23.9,-3.8,30.24,WNW,295,3.5,3.5,29,0.00,OVC,,0.00,WeatherDisplay:10.37,2013-03-02 07:31:00,
2013-03-02 01:36:00,23.7,-5.5,30.24,WSW,240,0.0,0.0,27,0.00,OVC,,0.00,WeatherDisplay:10.37,2013-03-02 07:36:00,
2013-03-02 01:41:00,23.7,-5.5,30.24,NW,326,0.0,0.0,27,0.00,OVC,,0.00,WeatherDisplay:10.37,2013-03-02 07:41:00,
2013-03-02 01:46:00,23.5,-5.6,30.24,NNW,328,3.6,3.6,27,0.00,OVC,,0.00,WeatherDisplay:10.37,2013-03-02 07:46:00,
2013-03-02 01:51:00,23.5,-8.0,30.24,NNW,341,0.0,0.0,24,0.00,OVC,,0.00,WeatherDisplay:10.37,2013-03-02 07:51:00,
2013-03-02 01:56:00,23.4,-8.2,30.24,NNW,333,3.5,3.5,24,0.00,OVC,,0.00,WeatherDisplay:10.37,2013-03-02 07:56:00,
2013-03-02 02:01:00,23.2,-8.3,30.24,NW,326,3.5,3.5,24,0.00,OVC,,0.00,WeatherDisplay:10.37,2013-03-02 08:01:00,
2013-03-02 02:06:00,23.2,-8.3,30.24,NNW,333,3.5,0.0,24,0.00,OVC,,0.00,WeatherDisplay:10.37,2013-03-02 08:06:00,
2013-03-02 02:11:00,23.0,-7.7,30.24,WNW,288,0.0,0.0,25,0.00,OVC,,0.00,WeatherDisplay:10.37,2013-03-02 08:11:00,
2013-03-02 02:16:00,22.8,-7.8,30.24,NW,304,3.5,0.0,25,0.00,OVC,,0.00,WeatherDisplay:10.37,2013-03-02 08:16:00,
2013-03-02 02:21:00,22.8,-7.8,30.24,NW,305,3.5,3.5,25,0.00,OVC,,0.00,WeatherDisplay:10.37,2013-03-02 08:21:00,
2013-03-02 02:26:00,22.6,-8.0,30.24,NW,316,5.8,5.8,25,0.00,OVC,,0.00,WeatherDisplay:10.37,2013-03-02 08:26:00,
2013-03-02 02:31:00,22.5,-10.7,30.24,WNW,297,3.5,0.0,22,0.00,OVC,,0.00,WeatherDisplay:10.37,2013-03-02 08:31:00,
2013-03-02 02:36:00,22.3,-10.9,30.24,NNW,328,3.5,0.0,22,0.00,OVC,,0.00,WeatherDisplay:10.37,2013-03-02 08:36:00,
2013-03-02 02:41:00,22.1,-11.0,30.24,NNW,329,4.6,0.0,22,0.00,OVC,,0.00,WeatherDisplay:10.37,2013-03-02 08:41:00,
2013-03-02 02:46:00,21.9,-11.2,30.24,NW,323,0.0,0.0,22,0.00,OVC,,0.00,WeatherDisplay:10.37,2013-03-02 08:46:00,
2013-03-02 02:51:00,21.7,-11.3,30.24,NW,314,2.3,0.0,22,0.00,OVC,,0.00,WeatherDisplay:10.37,2013-03-02 08:51:00,
2013-03-02 02:56:00,21.4,-11.7,30.24,NNW,348,3.5,3.5,22,0.00,OVC,,0.00,WeatherDisplay:10.37,2013-03-02 08:56:00,
2013-03-02 03:01:00,21.2,-11.8,30.24,NNW,348,3.5,0.0,22,0.00,OVC,,0.00,WeatherDisplay:10.37,2013-03-02 09:01:00,
2013-03-02 03:06:00,21.0,-12.0,30.24,WNW,295,4.6,4.6,22,0.00,OVC,,0.00,WeatherDisplay:10.37,2013-03-02 09:06:00,
2013-03-02 03:11:00,20.8,-9.5,30.24,NNW,341,3.5,3.5,25,0.00,OVC,,0.00,WeatherDisplay:10.37,2013-03-02 09:11:00,
2013-03-02 03:16:00,20.7,-9.7,30.24,NNW,340,0.0,0.0,25,0.00,OVC,,0.00,WeatherDisplay:10.37,2013-03-02 09:16:00,
2013-03-02 03:21:00,20.5,-9.8,30.24,NW,322,5.8,5.8,25,0.00,OVC,,0.00,WeatherDisplay:10.37,2013-03-02 09:21:00,
2013-03-02 03:26:00,20.3,-10.0,30.24,WNW,295,0.0,0.0,25,0.00,OVC,,0.00,WeatherDisplay:10.37,2013-03-02 09:26:00,
2013-03-02 03:31:00,20.3,-10.0,30.21,NNE,30,4.6,4.6,25,0.00,OVC,,0.00,WeatherDisplay:10.37,2013-03-02 09:31:00,
2013-03-02 03:36:00,20.1,-10.1,30.21,NNW,345,3.5,3.5,25,0.00,OVC,,0.00,WeatherDisplay:10.37,2013-03-02 09:36:00,
2013-03-02 03:41:00,19.9,-10.3,30.21,North,2,0.0,0.0,25,0.00,OVC,,0.00,WeatherDisplay:10.37,2013-03-02 09:41:00,
2013-03-02 03:46:00,19.8,-10.5,30.21,NNW,335,5.8,5.8,25,0.00,OVC,,0.00,WeatherDisplay:10.37,2013-03-02 09:46:00,
2013-03-02 03:51:00,19.6,-10.6,30.21,NW,319,5.8,5.8,25,0.00,OVC,,0.00,WeatherDisplay:10.37,2013-03-02 09:51:00,
2013-03-02 03:56:00,19.6,-10.6,30.21,NNW,333,5.8,0.0,25,0.00,OVC,,0.00,WeatherDisplay:10.37,2013-03-02 09:56:00,
2013-03-02 04:01:00,19.2,-10.9,30.21,NW,325,3.5,3.5,25,0.00,OVC,,0.00,WeatherDisplay:10.37,2013-03-02 10:01:00,
2013-03-02 04:06:00,19.0,-11.1,30.21,WNW,292,3.5,0.0,25,0.00,OVC,,0.00,WeatherDisplay:10.37,2013-03-02 10:06:00,
2013-03-02 04:11:00,18.9,-11.2,30.21,NNW,340,3.5,0.0,25,0.00,OVC,,0.00,WeatherDisplay:10.37,2013-03-02 10:11:00,
2013-03-02 04:16:00,18.5,-11.5,30.21,NNW,332,3.5,3.5,25,0.00,OVC,,0.00,WeatherDisplay:10.37,2013-03-02 10:16:00,
2013-03-02 04:21:00,18.5,-11.5,30.21,NNW,327,3.5,3.5,25,0.00,OVC,,0.00,WeatherDisplay:10.37,2013-03-02 10:21:00,
2013-03-02 04:26:00,18.3,-9.4,30.21,NW,322,2.3,0.0,28,0.00,CLR,OVC,0.00,WeatherDisplay:10.37,2013-03-02 10:26:00,
2013-03-02 04:31:00,18.1,-9.6,30.21,NNW,343,4.6,0.0,28,0.00,CLR,OVC,0.00,WeatherDisplay:10.37,2013-03-02 10:31:00,
2013-03-02 04:37:00,18.0,-9.7,30.21,NNW,335,5.8,5.8,28,0.00,CLR,OVC,0.00,WeatherDisplay:10.37,2013-03-02 10:37:00,
2013-03-02 04:42:00,17.8,-9.9,30.24,NNW,341,4.6,4.6,28,0.00,CLR,OVC,0.00,WeatherDisplay:10.37,2013-03-02 10:42:00,
2013-03-02 04:47:00,17.6,-10.0,30.24,NNW,332,3.5,4.5,28,0.00,CLR,OVC,0.00,WeatherDisplay:10.37,2013-03-02 10:47:00,
2013-03-02 04:52:00,17.4,-10.2,30.24,North,353,5.8,5.8,28,0.00,CLR,OVC,0.00,WeatherDisplay:10.37,2013-03-02 10:52:00,
2013-03-02 04:57:00,17.4,-10.2,30.24,NW,322,3.5,0.0,28,0.00,CLR,OVC,0.00,WeatherDisplay:10.37,2013-03-02 10:57:00,
2013-03-02 05:02:00,17.1,-10.5,30.24,North,349,8.1,8.1,28,0.00,CLR,OVC,0.00,WeatherDisplay:10.37,2013-03-02 11:02:00,
2013-03-02 05:07:00,17.1,-10.5,30.24,NNW,332,5.8,5.8,28,0.00,CLR,OVC,0.00,WeatherDisplay:10.37,2013-03-02 11:07:00,
2013-03-02 05:12:00,16.9,-10.7,30.24,NW,326,3.5,0.0,28,0.00,CLR,OVC,0.00,WeatherDisplay:10.37,2013-03-02 11:12:00,
2013-03-02 05:17:00,16.7,-8.8,30.24,North,353,5.8,5.8,31,0.00,CLR,OVC,0.00,WeatherDisplay:10.37,2013-03-02 11:17:00,
2013-03-02 05:22:00,16.7,-8.8,30.24,NNW,327,4.6,4.6,31,0.00,CLR,OVC,0.00,WeatherDisplay:10.37,2013-03-02 11:22:00,
2013-03-02 05:27:00,16.5,-8.9,30.26,NNW,338,5.8,5.8,31,0.00,CLR,OVC,0.00,WeatherDisplay:10.37,2013-03-02 11:27:00,
2013-03-02 05:32:00,16.5,-8.9,30.26,NW,317,3.5,0.0,31,0.00,CLR,OVC,0.00,WeatherDisplay:10.37,2013-03-02 11:32:00,
2013-03-02 05:37:00,16.2,-9.2,30.26,NW,314,2.3,2.7,31,0.00,CLR,OVC,0.00,WeatherDisplay:10.37,2013-03-02 11:37:00,
2013-03-02 05:42:00,16.2,-9.2,30.26,WNW,288,3.5,3.5,31,0.00,CLR,OVC,0.00,WeatherDisplay:10.37,2013-03-02 11:42:00,
2013-03-02 05:47:00,16.0,-8.1,30.26,WNW,288,3.5,3.5,33,0.00,CLR,OVC,0.00,WeatherDisplay:10.37,2013-03-02 11:47:00,
2013-03-02 05:52:00,16.0,-8.1,30.26,NW,311,3.5,3.5,33,0.00,CLR,OVC,0.00,WeatherDisplay:10.37,2013-03-02 11:52:00,
2013-03-02 05:57:00,15.8,-7.7,30.26,NW,313,0.0,0.0,34,0.00,CLR,OVC,0.00,WeatherDisplay:10.37,2013-03-02 11:57:00,
2013-03-02 06:02:00,15.6,-7.8,30.26,NW,314,3.5,0.0,34,0.00,CLR,OVC,0.00,WeatherDisplay:10.37,2013-03-02 12:02:00,
2013-03-02 06:07:00,15.4,-8.0,30.26,NNW,328,8.1,8.1,34,0.00,CLR,OVC,0.00,WeatherDisplay:10.37,2013-03-02 12:07:00,
2013-03-02 06:12:00,15.4,-8.0,30.26,NW,308,5.8,0.0,34,0.00,CLR,OVC,0.00,WeatherDisplay:10.37,2013-03-02 12:12:00,
2013-03-02 06:17:00,15.3,-8.1,30.26,NW,325,2.3,0.0,34,0.00,CLR,OVC,0.00,WeatherDisplay:10.37,2013-03-02 12:17:00,
2013-03-02 06:22:00,15.3,-8.1,30.26,NNW,327,5.8,5.8,34,0.00,CLR,OVC,0.00,WeatherDisplay:10.37,2013-03-02 12:22:00,
2013-03-02 06:27:00,15.3,-8.1,30.26,NW,321,0.0,0.0,34,0.00,CLR,OVC,0.00,WeatherDisplay:10.37,2013-03-02 12:27:00,
2013-03-02 06:32:00,15.1,-8.3,30.26,NNW,327,0.0,0.0,34,0.00,CLR,OVC,0.00,WeatherDisplay:10.37,2013-03-02 12:32:00,
2013-03-02 06:37:00,15.1,-8.3,30.26,NW,321,5.8,5.8,34,0.00,CLR,OVC,0.00,WeatherDisplay:10.37,2013-03-02 12:37:00,
2013-03-02 06:42:00,15.1,-8.3,30.26,NNW,333,2.3,0.0,34,0.00,CLR,OVC,0.00,WeatherDisplay:10.37,2013-03-02 12:42:00,
2013-03-02 06:47:00,15.1,-8.3,30.26,NW,315,3.5,0.0,34,0.00,CLR,OVC,0.00,WeatherDisplay:10.37,2013-03-02 12:47:00,
2013-03-02 06:52:00,15.1,-8.3,30.26,NNW,331,3.5,3.5,34,0.00,CLR,OVC,0.00,WeatherDisplay:10.37,2013-03-02 12:52:00,
2013-03-02 06:57:00,15.1,-8.3,30.26,NW,319,4.6,0.0,34,0.00,CLR,OVC,0.00,WeatherDisplay:10.37,2013-03-02 12:57:00,
2013-03-02 07:02:00,15.3,-8.1,30.26,NNW,330,5.8,5.8,34,0.00,CLR,OVC,0.00,WeatherDisplay:10.37,2013-03-02 13:02:00,
2013-03-02 07:07:00,15.4,-8.0,30.26,NW,326,5.8,5.8,34,0.00,CLR,OVC,0.00,WeatherDisplay:10.37,2013-03-02 13:07:00,
2013-03-02 07:12:00,15.4,-8.0,30.26,NNW,338,4.6,4.6,34,0.00,CLR,OVC,0.00,WeatherDisplay:10.37,2013-03-02 13:12:00,
2013-03-02 07:17:00,15.6,-7.8,30.26,NNW,331,5.8,5.8,34,0.00,CLR,OVC,0.00,WeatherDisplay:10.37,2013-03-02 13:17:00,
2013-03-02 07:22:00,15.8,-7.7,30.26,NNW,343,3.5,0.0,34,0.00,CLR,OVC,0.00,WeatherDisplay:10.37,2013-03-02 13:22:00,
2013-03-02 07:27:00,15.8,-7.7,30.26,NNW,340,3.5,3.5,34,0.00,CLR,OVC,0.00,WeatherDisplay:10.37,2013-03-02 13:27:00,
2013-03-02 07:32:00,16.0,-8.1,30.26,NW,319,5.8,5.8,33,0.00,CLR,OVC,0.00,WeatherDisplay:10.37,2013-03-02 13:32:00,
2013-03-02 07:37:00,16.0,-8.1,30.26,North,2,4.6,0.0,33,0.00,CLR,OVC,0.00,WeatherDisplay:10.37,2013-03-02 13:37:00,
2013-03-02 07:42:00,16.2,-9.2,30.26,NW,322,6.9,6.9,31,0.00,CLR,OVC,0.00,WeatherDisplay:10.37,2013-03-02 13:42:00,
2013-03-02 07:47:00,16.3,-11.1,30.26,North,357,3.5,3.5,28,0.00,CLR,OVC,0.00,WeatherDisplay:10.37,2013-03-02 13:47:00,
2013-03-02 07:52:00,16.3,-11.1,30.26,NNW,339,5.8,5.8,28,0.00,CLR,OVC,0.00,WeatherDisplay:10.37,2013-03-02 13:52:00,
2013-03-02 07:57:00,16.5,-11.0,30.26,North,349,3.5,3.5,28,0.00,CLR,OVC,0.00,WeatherDisplay:10.37,2013-03-02 13:57:00,
2013-03-02 08:02:00,16.7,-12.3,30.26,NW,324,3.5,3.6,26,0.00,CLR,OVC,0.00,WeatherDisplay:10.37,2013-03-02 14:02:00,
2013-03-02 08:07:00,17.1,-12.0,30.26,NNW,340,5.8,5.8,26,0.00,CLR,OVC,0.00,WeatherDisplay:10.37,2013-03-02 14:07:00,
2013-03-02 08:12:00,17.4,-11.7,30.30,NNW,336,6.9,6.9,26,0.00,CLR,OVC,0.00,WeatherDisplay:10.37,2013-03-02 14:12:00,
2013-03-02 08:17:00,17.6,-14.0,30.30,NW,320,5.8,5.8,23,0.00,CLR,OVC,0.00,WeatherDisplay:10.37,2013-03-02 14:17:00,
2013-03-02 08:22:00,18.0,-13.7,30.30,WNW,297,5.8,5.8,23,0.00,CLR,OVC,0.00,WeatherDisplay:10.37,2013-03-02 14:22:00,
2013-03-02 08:27:00,18.3,-16.1,30.30,NW,320,5.8,5.8,20,0.00,CLR,OVC,0.00,WeatherDisplay:10.37,2013-03-02 14:27:00,
2013-03-02 08:32:00,18.9,-15.7,30.30,North,4,5.8,5.8,20,0.00,CLR,OVC,0.00,WeatherDisplay:10.37,2013-03-02 14:32:00,
2013-03-02 08:37:00,19.2,-15.4,30.30,NNW,327,5.8,5.8,20,0.00,CLR,OVC,0.00,WeatherDisplay:10.37,2013-03-02 14:37:00,
2013-03-02 08:42:00,19.6,-15.1,30.30,North,357,3.5,3.6,20,0.00,CLR,OVC,0.00,WeatherDisplay:10.37,2013-03-02 14:42:00,
2013-03-02 08:47:00,20.1,-14.6,30.30,NW,310,5.8,5.8,20,0.00,CLR,OVC,0.00,WeatherDisplay:10.37,2013-03-02 14:47:00,
2013-03-02 08:52:00,20.3,-14.5,30.30,NNW,337,3.5,3.5,20,0.00,CLR,OVC,0.00,WeatherDisplay:10.37,2013-03-02 14:52:00,
2013-03-02 08:57:00,20.3,-17.7,30.30,North,353,5.8,5.8,17,0.00,CLR,OVC,0.00,WeatherDisplay:10.37,2013-03-02 14:57:00,
2013-03-02 09:02:00,20.3,-17.7,30.30,WNW,301,5.8,5.8,17,0.00,CLR,OVC,0.00,WeatherDisplay:10.37,2013-03-02 15:02:00,
2013-03-02 09:08:00,20.5,-17.5,30.30,North,357,3.5,4.0,17,0.00,CLR,OVC,0.00,WeatherDisplay:10.37,2013-03-02 15:08:00,
2013-03-02 09:13:00,21.0,-17.1,30.30,North,357,5.8,5.8,17,0.00,CLR,OVC,0.00,WeatherDisplay:10.37,2013-03-02 15:13:00,
2013-03-02 09:18:00,21.4,-16.8,30.30,WNW,292,5.8,5.8,17,0.00,CLR,OVC,0.00,WeatherDisplay:10.37,2013-03-02 15:18:00,
2013-03-02 09:23:00,21.9,-16.3,30.30,NNW,332,5.8,5.8,17,0.00,CLR,OVC,0.00,WeatherDisplay:10.37,2013-03-02 15:23:00,
2013-03-02 09:28:00,22.3,-16.0,30.26,North,0,3.5,3.5,17,0.00,CLR,OVC,0.00,WeatherDisplay:10.37,2013-03-02 15:28:00,
2013-03-02 09:33:00,22.3,-16.0,30.26,NNW,346,3.5,3.5,17,0.00,CLR,OVC,0.00,WeatherDisplay:10.37,2013-03-02 15:33:00,
2013-03-02 09:38:00,22.5,-15.9,30.26,NW,326,5.8,5.8,17,0.00,CLR,OVC,0.00,WeatherDisplay:10.37,2013-03-02 15:38:00,
2013-03-02 09:43:00,22.8,-15.6,30.30,NNW,327,5.8,5.8,17,0.00,CLR,OVC,0.00,WeatherDisplay:10.37,2013-03-02 15:43:00,
2013-03-02 09:48:00,23.2,-15.3,30.30,NNW,348,3.5,0.0,17,0.00,CLR,OVC,0.00,WeatherDisplay:10.37,2013-03-02 15:48:00,
2013-03-02 09:53:00,23.7,-14.8,30.30,NNW,333,5.8,5.8,17,0.00,CLR,OVC,0.00,WeatherDisplay:10.37,2013-03-02 15:53:00,
2013-03-02 09:58:00,24.1,-14.5,30.30,NW,319,5.8,5.8,17,0.00,CLR,OVC,0.00,WeatherDisplay:10.37,2013-03-02 15:58:00,
2013-03-02 10:03:00,24.3,-14.4,30.30,NW,319,5.8,5.8,17,0.00,CLR,OVC,0.00,WeatherDisplay:10.37,2013-03-02 16:03:00,
2013-03-02 10:08:00,24.4,-14.2,30.30,NW,320,5.8,5.8,17,0.00,CLR,OVC,0.00,WeatherDisplay:10.37,2013-03-02 16:08:00,
2013-03-02 10:13:00,24.8,-13.9,30.30,NW,314,0.0,0.0,17,0.00,CLR,OVC,0.00,WeatherDisplay:10.37,2013-03-02 16:13:00,
2013-03-02 10:18:00,25.2,-14.8,30.30,WNW,296,8.1,8.1,16,0.00,CLR,OVC,0.00,WeatherDisplay:10.37,2013-03-02 16:18:00,
2013-03-02 10:23:00,25.3,-14.7,30.30,NW,304,8.1,8.1,16,0.00,CLR,OVC,0.00,WeatherDisplay:10.37,2013-03-02 16:23:00,
2013-03-02 10:28:00,25.3,-14.7,30.30,NW,323,11.5,11.5,16,0.00,CLR,OVC,0.00,WeatherDisplay:10.37,2013-03-02 16:28:00,
2013-03-02 10:33:00,25.7,-14.4,30.30,NW,317,8.1,8.1,16,0.00,CLR,OVC,0.00,WeatherDisplay:10.37,2013-03-02 16:33:00,
2013-03-02 10:38:00,26.1,-14.1,30.30,NNW,343,5.8,5.8,16,0.00,CLR,OVC,0.00,WeatherDisplay:10.37,2013-03-02 16:38:00,
2013-03-02 10:43:00,26.6,-13.7,30.30,NNE,14,5.8,5.8,16,0.00,CLR,OVC,0.00,WeatherDisplay:10.37,2013-03-02 16:43:00,
2013-03-02 10:48:00,27.1,-13.2,30.30,NNW,334,3.5,3.6,16,0.00,CLR,OVC,0.00,WeatherDisplay:10.37,2013-03-02 16:48:00,
2013-03-02 10:53:00,27.0,-13.4,30.30,NW,309,3.5,4.0,16,0.00,CLR,OVC,0.00,WeatherDisplay:10.37,2013-03-02 16:53:00,
2013-03-02 10:58:00,27.0,-13.4,30.30,WNW,301,3.5,3.5,16,0.00,CLR,OVC,0.00,WeatherDisplay:10.37,2013-03-02 16:58:00,
2013-03-02 11:03:00,27.3,-13.1,30.30,NW,321,5.8,5.8,16,0.00,CLR,OVC,0.00,WeatherDisplay:10.37,2013-03-02 17:03:00,
2013-03-02 11:08:00,27.5,-12.9,30.30,NW,320,5.8,5.8,16,0.00,CLR,OVC,0.00,WeatherDisplay:10.37,2013-03-02 17:08:00,
2013-03-02 11:13:00,27.7,-12.8,30.30,NNW,330,8.1,8.1,16,0.00,CLR,OVC,0.00,WeatherDisplay:10.37,2013-03-02 17:13:00,
2013-03-02 11:18:00,27.9,-12.6,30.30,NW,323,8.1,8.1,16,0.00,CLR,OVC,0.00,WeatherDisplay:10.37,2013-03-02 17:18:00,
2013-03-02 11:23:00,27.9,-12.6,30.30,NW,321,5.8,5.8,16,0.00,CLR,OVC,0.00,WeatherDisplay:10.37,2013-03-02 17:23:00,
2013-03-02 11:28:00,28.2,-12.3,30.30,WNW,298,3.5,0.0,16,0.00,CLR,OVC,0.00,WeatherDisplay:10.37,2013-03-02 17:28:00,
2013-03-02 11:33:00,28.6,-13.3,30.30,NW,323,5.8,0.0,15,0.00,CLR,OVC,0.00,WeatherDisplay:10.37,2013-03-02 17:33:00,
2013-03-02 11:38:00,28.9,-13.0,30.30,WNW,303,5.8,5.8,15,0.00,CLR,OVC,0.00,WeatherDisplay:10.37,2013-03-02 17:38:00,
2013-03-02 11:43:00,29.3,-12.7,30.30,North,353,8.1,8.1,15,0.00,CLR,OVC,0.00,WeatherDisplay:10.37,2013-03-02 17:43:00,
2013-03-02 11:48:00,28.9,-13.0,30.30,West,278,5.8,5.8,15,0.00,CLR,OVC,0.00,WeatherDisplay:10.37,2013-03-02 17:48:00,
2013-03-02 11:53:00,28.8,-13.2,30.30,NW,305,8.1,8.1,15,0.00,CLR,OVC,0.00,WeatherDisplay:10.37,2013-03-02 17:53:00,
2013-03-02 11:58:00,28.9,-13.0,30.30,NNW,337,6.9,6.9,15,0.00,CLR,OVC,0.00,WeatherDisplay:10.37,2013-03-02 17:58:00,
2013-03-02 12:03:00,29.1,-12.9,30.30,NNW,346,5.8,0.0,15,0.00,CLR,OVC,0.00,WeatherDisplay:10.37,2013-03-02 18:03:00,
2013-03-02 12:08:00,29.5,-12.6,30.30,WNW,285,5.8,5.8,15,0.00,CLR,OVC,0.00,WeatherDisplay:10.37,2013-03-02 18:08:00,
2013-03-02 12:13:00,29.7,-12.4,30.30,NNW,343,3.5,3.5,15,0.00,CLR,OVC,0.00,WeatherDisplay:10.37,2013-03-02 18:13:00,
2013-03-02 12:18:00,29.8,-12.3,30.30,West,259,3.5,3.5,15,0.00,CLR,OVC,0.00,WeatherDisplay:10.37,2013-03-02 18:18:00,
2013-03-02 12:23:00,30.2,-12.0,30.30,NNW,332,3.5,4.5,15,0.00,CLR,OVC,0.00,WeatherDisplay:10.37,2013-03-02 18:23:00,
2013-03-02 12:28:00,30.0,-12.2,30.26,NNE,24,5.8,5.8,15,0.00,CLR,OVC,0.00,WeatherDisplay:10.37,2013-03-02 18:28:00,
2013-03-02 12:33:00,30.0,-12.2,30.26,North,4,4.6,0.0,15,0.00,CLR,OVC,0.00,WeatherDisplay:10.37,2013-03-02 18:33:00,
2013-03-02 12:38:00,30.0,-12.2,30.26,North,357,3.5,3.5,15,0.00,CLR,OVC,0.00,WeatherDisplay:10.37,2013-03-02 18:38:00,
2013-03-02 12:43:00,30.2,-12.0,30.26,NNE,31,5.8,5.8,15,0.00,CLR,OVC,0.00,WeatherDisplay:10.37,2013-03-02 18:43:00,
2013-03-02 12:48:00,30.2,-12.0,30.26,NNE,28,10.4,10.4,15,0.00,CLR,OVC,0.00,WeatherDisplay:10.37,2013-03-02 18:48:00,
2013-03-02 12:53:00,29.8,-12.3,30.26,WNW,292,5.8,5.8,15,0.00,CLR,OVC,0.00,WeatherDisplay:10.37,2013-03-02 18:53:00,
2013-03-02 12:58:00,29.7,-12.4,30.26,WNW,297,5.8,5.8,15,0.00,CLR,OVC,0.00,WeatherDisplay:10.37,2013-03-02 18:58:00,
2013-03-02 13:03:00,30.0,-12.2,30.26,NNW,340,5.8,5.8,15,0.00,CLR,OVC,0.00,WeatherDisplay:10.37,2013-03-02 19:03:00,
2013-03-02 13:08:00,30.0,-12.2,30.26,North,7,5.8,5.8,15,0.00,CLR,OVC,0.00,WeatherDisplay:10.37,2013-03-02 19:08:00,
2013-03-02 13:13:00,30.2,-12.0,30.26,North,5,6.9,6.9,15,0.00,CLR,OVC,0.00,WeatherDisplay:10.37,2013-03-02 19:13:00,
2013-03-02 13:18:00,30.4,-11.9,30.26,WNW,296,5.8,5.8,15,0.00,CLR,OVC,0.00,WeatherDisplay:10.37,2013-03-02 19:18:00,
2013-03-02 13:23:00,30.4,-11.9,30.26,WNW,292,11.5,11.5,15,0.00,CLR,OVC,0.00,WeatherDisplay:10.37,2013-03-02 19:23:00,
2013-03-02 13:28:00,30.0,-12.2,30.26,NNW,338,5.8,5.8,15,0.00,CLR,OVC,0.00,WeatherDisplay:10.37,2013-03-02 19:28:00,
2013-03-02 13:33:00,30.2,-12.0,30.26,NW,311,8.1,8.1,15,0.00,CLR,OVC,0.00,WeatherDisplay:10.37,2013-03-02 19:33:00,
2013-03-02 13:38:00,30.0,-12.2,30.26,NNW,341,8.1,8.1,15,0.00,CLR,OVC,0.00,WeatherDisplay:10.37,2013-03-02 19:38:00,
2013-03-02 13:43:00,30.2,-12.0,30.26,NW,323,5.8,5.8,15,0.00,CLR,OVC,0.00,WeatherDisplay:10.37,2013-03-02 19:43:00,
2013-03-02 13:48:00,30.4,-11.9,30.26,NW,309,4.6,4.6,15,0.00,CLR,OVC,0.00,WeatherDisplay:10.37,2013-03-02 19:48:00,
2013-03-02 13:53:00,30.6,-11.7,30.26,North,353,8.1,8.1,15,0.00,CLR,OVC,0.00,WeatherDisplay:10.37,2013-03-02 19:53:00,
2013-03-02 13:58:00,30.6,-11.7,30.26,NNW,333,8.1,8.1,15,0.00,CLR,OVC,0.00,WeatherDisplay:10.37,2013-03-02 19:58:00,
2013-03-02 14:03:00,29.8,-12.3,30.26,NW,308,5.8,5.8,15,0.00,CLR,OVC,0.00,WeatherDisplay:10.37,2013-03-02 20:03:00,
2013-03-02 14:08:00,29.8,-12.3,30.26,North,2,6.9,6.9,15,0.00,CLR,OVC,0.00,WeatherDisplay:10.37,2013-03-02 20:08:00,
2013-03-02 14:13:00,30.2,-12.0,30.24,NW,311,4.6,4.6,15,0.00,CLR,OVC,0.00,WeatherDisplay:10.37,2013-03-02 20:13:00,
2013-03-02 14:18:00,30.2,-12.0,30.24,West,281,10.4,10.4,15,0.00,CLR,OVC,0.00,WeatherDisplay:10.37,2013-03-02 20:18:00,
2013-03-02 14:23:00,30.4,-11.9,30.24,NW,319,4.6,4.6,15,0.00,CLR,OVC,0.00,WeatherDisplay:10.37,2013-03-02 20:23:00,
2013-03-02 14:28:00,30.2,-12.0,30.24,NNW,338,0.0,0.0,15,0.00,CLR,OVC,0.00,WeatherDisplay:10.37,2013-03-02 20:28:00,
2013-03-02 14:33:00,30.0,-12.2,30.24,NNW,329,5.8,0.0,15,0.00,CLR,OVC,0.00,WeatherDisplay:10.37,2013-03-02 20:33:00,
2013-03-02 14:38:00,30.0,-12.2,30.24,NW,318,8.1,8.1,15,0.00,CLR,OVC,0.00,WeatherDisplay:10.37,2013-03-02 20:38:00,
2013-03-02 14:43:00,29.8,-12.3,30.24,WNW,289,8.1,8.1,15,0.00,CLR,OVC,0.00,WeatherDisplay:10.37,2013-03-02 20:43:00,
2013-03-02 14:48:00,29.5,-12.6,30.24,NW,317,8.1,8.1,15,0.00,CLR,OVC,0.00,WeatherDisplay:10.37,2013-03-02 20:48:00,
2013-03-02 14:53:00,29.8,-12.3,30.24,NW,305,4.6,0.0,15,0.00,CLR,OVC,0.00,WeatherDisplay:10.37,2013-03-02 20:53:00,
2013-03-02 14:58:00,29.7,-12.4,30.24,West,273,2.3,0.0,15,0.00,CLR,OVC,0.00,WeatherDisplay:10.37,2013-03-02 20:58:00,
2013-03-02 15:03:00,29.8,-12.3,30.24,NW,306,0.0,0.0,15,0.00,CLR,OVC,0.00,WeatherDisplay:10.37,2013-03-02 21:03:00,
2013-03-02 15:08:00,29.8,-12.3,30.24,NE,36,3.5,3.5,15,0.00,CLR,OVC,0.00,WeatherDisplay:10.37,2013-03-02 21:08:00,
2013-03-02 15:13:00,30.0,-12.2,30.24,WNW,303,5.8,5.8,15,0.00,CLR,OVC,0.00,WeatherDisplay:10.37,2013-03-02 21:13:00,
2013-03-02 15:18:00,30.2,-12.0,30.24,NNE,22,5.8,5.8,15,0.00,CLR,OVC,0.00,WeatherDisplay:10.37,2013-03-02 21:18:00,
2013-03-02 15:23:00,30.9,-11.4,30.24,NNE,15,5.8,0.0,15,0.00,CLR,OVC,0.00,WeatherDisplay:10.37,2013-03-02 21:23:00,
2013-03-02 15:28:00,31.1,-11.3,30.24,NW,312,3.5,0.0,15,0.00,CLR,OVC,0.00,WeatherDisplay:10.37,2013-03-02 21:28:00,
2013-03-02 15:33:00,30.6,-11.7,30.24,WSW,251,3.5,3.5,15,0.00,CLR,OVC,0.00,WeatherDisplay:10.37,2013-03-02 21:33:00,
2013-03-02 15:38:00,30.7,-11.6,30.24,NNW,329,5.8,5.8,15,0.00,CLR,OVC,0.00,WeatherDisplay:10.37,2013-03-02 21:38:00,
2013-03-02 15:43:00,30.7,-11.6,30.24,WNW,292,4.5,0.0,15,0.00,CLR,OVC,0.00,WeatherDisplay:10.37,2013-03-02 21:43:00,
2013-03-02 15:48:00,30.6,-11.7,30.24,North,353,2.3,0.0,15,0.00,CLR,OVC,0.00,WeatherDisplay:10.37,2013-03-02 21:48:00,
2013-03-02 15:53:00,30.4,-11.9,30.24,NNW,345,0.0,0.0,15,0.00,CLR,OVC,0.00,WeatherDisplay:10.37,2013-03-02 21:53:00,
2013-03-02 15:58:00,30.6,-11.7,30.24,North,8,3.5,3.5,15,0.00,CLR,OVC,0.00,WeatherDisplay:10.37,2013-03-02 21:58:00,
2013-03-02 16:03:00,30.9,-11.4,30.24,NNW,337,5.8,5.8,15,0.00,CLR,OVC,0.00,WeatherDisplay:10.37,2013-03-02 22:03:00,
2013-03-02 16:08:00,30.9,-11.4,30.24,NNW,344,5.8,5.8,15,0.00,CLR,OVC,0.00,WeatherDisplay:10.37,2013-03-02 22:08:00,
2013-03-02 16:13:00,30.6,-11.7,30.24,NW,313,0.0,0.0,15,0.00,CLR,OVC,0.00,WeatherDisplay:10.37,2013-03-02 22:13:00,
2013-03-02 16:18:00,30.2,-12.0,30.24,West,268,0.0,0.0,15,0.00,CLR,OVC,0.00,WeatherDisplay:10.37,2013-03-02 22:18:00,
2013-03-02 16:23:00,29.8,-12.3,30.24,NNW,327,0.0,0.0,15,0.00,CLR,OVC,0.00,WeatherDisplay:10.37,2013-03-02 22:23:00,
2013-03-02 16:28:00,29.5,-12.6,30.24,NNW,341,4.6,0.0,15,0.00,CLR,OVC,0.00,WeatherDisplay:10.37,2013-03-02 22:28:00,
2013-03-02 16:33:00,28.9,-13.0,30.24,West,262,0.0,0.0,15,0.00,CLR,OVC,0.00,WeatherDisplay:10.37,2013-03-02 22:33:00,
2013-03-02 16:38:00,28.6,-13.3,30.24,West,276,0.0,0.0,15,0.00,CLR,OVC,0.00,WeatherDisplay:10.37,2013-03-02 22:38:00,
2013-03-02 16:43:00,28.2,-12.3,30.24,NW,324,4.6,4.6,16,0.00,CLR,OVC,0.00,WeatherDisplay:10.37,2013-03-02 22:43:00,
2013-03-02 16:48:00,27.7,-12.8,30.24,WNW,295,0.0,0.0,16,0.00,CLR,OVC,0.00,WeatherDisplay:10.37,2013-03-02 22:48:00,
2013-03-02 16:53:00,27.5,-12.9,30.24,North,353,4.6,0.0,16,0.00,CLR,OVC,0.00,WeatherDisplay:10.37,2013-03-02 22:53:00,
2013-03-02 16:58:00,27.3,-13.1,30.24,WNW,294,2.3,0.0,16,0.00,CLR,OVC,0.00,WeatherDisplay:10.37,2013-03-02 22:58:00,
2013-03-02 17:03:00,27.1,-13.2,30.24,WNW,293,3.5,0.0,16,0.00,CLR,OVC,0.00,WeatherDisplay:10.37,2013-03-02 23:03:00,
2013-03-02 17:08:00,27.0,-13.4,30.24,WNW,290,0.0,0.0,16,0.00,CLR,OVC,0.00,WeatherDisplay:10.37,2013-03-02 23:08:00,
2013-03-02 17:13:00,26.6,-13.7,30.24,WNW,285,0.0,0.0,16,0.00,CLR,OVC,0.00,WeatherDisplay:10.37,2013-03-02 23:13:00,
2013-03-02 17:18:00,26.4,-13.8,30.24,WSW,251,3.5,0.0,16,0.00,CLR,OVC,0.00,WeatherDisplay:10.37,2013-03-02 23:18:00,
2013-03-02 17:23:00,26.2,-14.0,30.24,West,279,0.0,0.0,16,0.00,CLR,OVC,0.00,WeatherDisplay:10.37,2013-03-02 23:23:00,
2013-03-02 17:28:00,26.1,-14.1,30.24,WSW,250,3.5,0.0,16,0.00,CLR,OVC,0.00,WeatherDisplay:10.37,2013-03-02 23:28:00,
2013-03-02 17:33:00,25.7,-14.4,30.24,West,271,0.0,0.0,16,0.00,CLR,OVC,0.00,WeatherDisplay:10.37,2013-03-02 23:33:00,
2013-03-02 17:38:00,25.5,-14.6,30.24,WSW,251,0.0,0.0,16,0.00,CLR,OVC,0.00,WeatherDisplay:10.37,2013-03-02 23:38:00,
2013-03-02 17:43:00,25.3,-14.7,30.24,WNW,286,0.0,0.0,16,0.00,CLR,OVC,0.00,WeatherDisplay:10.37,2013-03-02 23:43:00,
2013-03-02 17:48:00,25.0,-15.0,30.24,West,265,0.0,0.0,16,0.00,CLR,OVC,0.00,WeatherDisplay:10.37,2013-03-02 23:48:00,
2013-03-02 17:53:00,24.8,-13.9,30.24,WNW,288,0.0,0.0,17,0.00,CLR,OVC,0.00,WeatherDisplay:10.37,2013-03-02 23:53:00,
2013-03-02 17:58:00,24.4,-14.2,30.24,WNW,286,2.3,0.0,17,0.00,CLR,OVC,0.00,WeatherDisplay:10.37,2013-03-02 23:58:00,
2013-03-02 18:03:00,24.3,-14.4,30.24,West,261,0.0,0.0,17,0.00,CLR,OVC,0.00,WeatherDisplay:10.37,2013-03-03 00:03:00,
2013-03-02 18:08:00,23.9,-14.7,30.24,NW,311,0.0,0.0,17,0.00,CLR,OVC,0.00,WeatherDisplay:10.37,2013-03-03 00:08:00,
2013-03-02 18:13:00,23.5,-15.0,30.24,NW,313,0.0,0.0,17,0.00,CLR,OVC,0.00,WeatherDisplay:10.37,2013-03-03 00:13:00,
2013-03-02 18:18:00,23.4,-15.1,30.24,NW,311,0.0,0.0,17,0.00,CLR,OVC,0.00,WeatherDisplay:10.37,2013-03-03 00:18:00,
2013-03-02 18:23:00,23.0,-15.4,30.24,NW,313,0.0,0.0,17,0.00,CLR,OVC,0.00,WeatherDisplay:10.37,2013-03-03 00:23:00,
2013-03-02 18:28:00,22.8,-15.6,30.24,WSW,244,0.0,0.0,17,0.00,CLR,OVC,0.00,WeatherDisplay:10.37,2013-03-03 00:28:00,
2013-03-02 18:33:00,22.8,-15.6,30.24,NW,309,0.0,0.0,17,0.00,CLR,OVC,0.00,WeatherDisplay:10.37,2013-03-03 00:33:00,
2013-03-02 18:38:00,23.0,-15.4,30.24,WNW,299,0.0,0.0,17,0.00,CLR,OVC,0.00,WeatherDisplay:10.37,2013-03-03 00:38:00,
2013-03-02 18:43:00,22.8,-15.6,30.24,West,272,3.5,0.0,17,0.00,CLR,OVC,0.00,WeatherDisplay:10.37,2013-03-03 00:43:00,
2013-03-02 18:48:00,22.8,-15.6,30.24,West,271,0.0,0.0,17,0.00,CLR,OVC,0.00,WeatherDisplay:10.37,2013-03-03 00:48:00,
2013-03-02 18:53:00,22.6,-15.7,30.24,SW,222,0.0,0.0,17,0.00,CLR,OVC,0.00,WeatherDisplay:10.37,2013-03-03 00:53:00,
2013-03-02 18:58:00,22.5,-15.9,30.24,SW,223,0.0,0.0,17,0.00,CLR,OVC,0.00,WeatherDisplay:10.37,2013-03-03 00:58:00,
2013-03-02 19:03:00,22.3,-16.0,30.24,WNW,297,0.0,0.0,17,0.00,CLR,OVC,0.00,WeatherDisplay:10.37,2013-03-03 01:03:00,
2013-03-02 19:08:00,21.9,-16.3,30.24,WNW,299,2.3,0.0,17,0.00,CLR,OVC,0.00,WeatherDisplay:10.37,2013-03-03 01:08:00,
2013-03-02 19:13:00,21.7,-16.5,30.24,NW,316,0.0,0.0,17,0.00,CLR,OVC,0.00,WeatherDisplay:10.37,2013-03-03 01:13:00,
2013-03-02 19:18:00,21.6,-16.6,30.24,NW,313,0.0,0.0,17,0.00,CLR,OVC,0.00,WeatherDisplay:10.37,2013-03-03 01:18:00,
2013-03-02 19:23:00,21.4,-16.8,30.24,WNW,283,0.0,0.0,17,0.00,CLR,OVC,0.00,WeatherDisplay:10.37,2013-03-03 01:23:00,
2013-03-02 19:28:00,21.4,-16.8,30.24,WNW,289,3.5,0.0,17,0.00,CLR,OVC,0.00,WeatherDisplay:10.37,2013-03-03 01:28:00,
2013-03-02 19:33:00,21.2,-16.9,30.24,WNW,294,2.3,0.0,17,0.00,CLR,OVC,0.00,WeatherDisplay:10.37,2013-03-03 01:33:00,
2013-03-02 19:38:00,21.4,-16.8,30.24,WNW,303,0.0,0.0,17,0.00,CLR,OVC,0.00,WeatherDisplay:10.37,2013-03-03 01:38:00,
2013-03-02 19:43:00,21.2,-16.9,30.24,WNW,298,0.0,0.0,17,0.00,CLR,OVC,0.00,WeatherDisplay:10.37,2013-03-03 01:43:00,
2013-03-02 19:48:00,21.2,-16.9,30.24,WNW,288,0.0,0.0,17,0.00,CLR,OVC,0.00,WeatherDisplay:10.37,2013-03-03 01:48:00,
2013-03-02 19:53:00,21.2,-16.9,30.24,WNW,288,0.0,0.0,17,0.00,CLR,OVC,0.00,WeatherDisplay:10.37,2013-03-03 01:53:00,
2013-03-02 19:58:00,21.2,-13.7,30.24,WNW,286,0.0,0.0,20,0.00,CLR,OVC,0.00,WeatherDisplay:10.37,2013-03-03 01:58:00,
2013-03-02 20:03:00,21.4,-13.6,30.24,NW,322,2.3,0.0,20,0.00,CLR,OVC,0.00,WeatherDisplay:10.37,2013-03-03 02:03:00,
2013-03-02 20:08:00,21.4,-13.6,30.24,NW,307,0.0,0.0,20,0.00,CLR,OVC,0.00,WeatherDisplay:10.37,2013-03-03 02:08:00,
2013-03-02 20:13:00,21.4,-13.6,30.24,NW,305,0.0,0.0,20,0.00,CLR,OVC,0.00,WeatherDisplay:10.37,2013-03-03 02:13:00,
2013-03-02 20:18:00,21.2,-13.7,30.24,NW,308,0.0,0.0,20,0.00,CLR,OVC,0.00,WeatherDisplay:10.37,2013-03-03 02:18:00,
2013-03-02 20:23:00,21.2,-13.7,30.24,WNW,302,0.0,0.0,20,0.00,CLR,OVC,0.00,WeatherDisplay:10.37,2013-03-03 02:23:00,
2013-03-02 20:28:00,21.2,-13.7,30.21,NNW,341,2.3,0.0,20,0.00,CLR,OVC,0.00,WeatherDisplay:10.37,2013-03-03 02:28:00,
2013-03-02 20:33:00,21.0,-13.9,30.21,NW,323,3.5,0.0,20,0.00,CLR,OVC,0.00,WeatherDisplay:10.37,2013-03-03 02:33:00,
2013-03-02 20:38:00,20.8,-14.0,30.21,NW,311,0.0,0.0,20,0.00,CLR,OVC,0.00,WeatherDisplay:10.37,2013-03-03 02:38:00,
2013-03-02 20:43:00,20.8,-14.0,30.24,NW,312,0.0,0.0,20,0.00,CLR,OVC,0.00,WeatherDisplay:10.37,2013-03-03 02:43:00,
2013-03-02 20:48:00,20.5,-14.3,30.24,NW,311,0.0,0.0,20,0.00,CLR,OVC,0.00,WeatherDisplay:10.37,2013-03-03 02:48:00,
2013-03-02 20:53:00,20.3,-14.5,30.24,WNW,303,2.3,0.0,20,0.00,CLR,OVC,0.00,WeatherDisplay:10.37,2013-03-03 02:53:00,
2013-03-02 20:58:00,20.1,-14.6,30.24,NW,326,0.0,0.0,20,0.00,CLR,OVC,0.00,WeatherDisplay:10.37,2013-03-03 02:58:00,
2013-03-02 21:03:00,19.9,-14.8,30.24,NNW,327,0.0,0.0,20,0.00,CLR,OVC,0.00,WeatherDisplay:10.37,2013-03-03 03:03:00,
2013-03-02 21:08:00,19.8,-14.9,30.24,NW,306,3.5,0.0,20,0.00,CLR,OVC,0.00,WeatherDisplay:10.37,2013-03-03 03:08:00,
2013-03-02 21:13:00,19.8,-14.9,30.24,WNW,293,3.5,0.0,20,0.00,CLR,OVC,0.00,WeatherDisplay:10.37,2013-03-03 03:13:00,
2013-03-02 21:18:00,19.9,-14.8,30.24,NNW,331,3.5,0.0,20,0.00,CLR,OVC,0.00,WeatherDisplay:10.37,2013-03-03 03:18:00,
2013-03-02 21:23:00,19.9,-14.8,30.24,NW,324,0.0,0.0,20,0.00,CLR,OVC,0.00,WeatherDisplay:10.37,2013-03-03 03:23:00,
2013-03-02 21:28:00,19.8,-14.9,30.21,NW,325,0.0,0.0,20,0.00,CLR,OVC,0.00,WeatherDisplay:10.37,2013-03-03 03:28:00,
2013-03-02 21:33:00,19.8,-14.9,30.21,NW,325,0.0,0.0,20,0.00,CLR,OVC,0.00,WeatherDisplay:10.37,2013-03-03 03:33:00,
2013-03-02 21:38:00,19.4,-15.2,30.21,NW,325,0.0,0.0,20,0.00,CLR,OVC,0.00,WeatherDisplay:10.37,2013-03-03 03:38:00,
2013-03-02 21:43:00,19.2,-15.4,30.21,NW,323,0.0,0.0,20,0.00,CLR,OVC,0.00,WeatherDisplay:10.37,2013-03-03 03:43:00,
2013-03-02 21:48:00,18.7,-15.8,30.21,NW,325,0.0,0.0,20,0.00,CLR,OVC,0.00,WeatherDisplay:10.37,2013-03-03 03:48:00,
2013-03-02 21:53:00,18.5,-16.0,30.21,NW,325,0.0,0.0,20,0.00,CLR,OVC,0.00,WeatherDisplay:10.37,2013-03-03 03:53:00,
2013-03-02 21:58:00,18.1,-16.3,30.21,NW,310,0.0,0.0,20,0.00,CLR,OVC,0.00,WeatherDisplay:10.37,2013-03-03 03:58:00,
2013-03-02 22:03:00,18.1,-16.3,30.21,NW,308,0.0,0.0,20,0.00,CLR,OVC,0.00,WeatherDisplay:10.37,2013-03-03 04:03:00,
2013-03-02 22:08:00,18.3,-16.1,30.21,NW,312,0.0,0.0,20,0.00,CLR,OVC,0.00,WeatherDisplay:10.37,2013-03-03 04:08:00,
2013-03-02 22:13:00,18.1,-16.3,30.21,NW,314,0.0,0.0,20,0.00,CLR,OVC,0.00,WeatherDisplay:10.37,2013-03-03 04:13:00,
2013-03-02 22:18:00,17.8,-16.6,30.21,NW,314,0.0,0.0,20,0.00,CLR,OVC,0.00,WeatherDisplay:10.37,2013-03-03 04:18:00,
2013-03-02 22:23:00,17.4,-15.9,30.21,NW,313,0.0,0.0,21,0.00,CLR,OVC,0.00,WeatherDisplay:10.37,2013-03-03 04:23:00,
2013-03-02 22:28:00,17.1,-16.2,30.21,NW,312,0.0,0.0,21,0.00,CLR,OVC,0.00,WeatherDisplay:10.37,2013-03-03 04:28:00,
2013-03-02 22:33:00,16.9,-16.4,30.21,NW,313,0.0,0.0,21,0.00,CLR,OVC,0.00,WeatherDisplay:10.37,2013-03-03 04:33:00,
2013-03-02 22:38:00,16.7,-16.6,30.21,NW,313,0.0,0.0,21,0.00,CLR,OVC,0.00,WeatherDisplay:10.37,2013-03-03 04:38:00,
2013-03-02 22:43:00,16.5,-16.7,30.21,NW,314,0.0,0.0,21,0.00,CLR,OVC,0.00,WeatherDisplay:10.37,2013-03-03 04:43:00,
2013-03-02 22:48:00,16.2,-17.0,30.21,NW,313,0.0,0.0,21,0.00,CLR,OVC,0.00,WeatherDisplay:10.37,2013-03-03 04:48:00,
2013-03-02 22:53:00,16.0,-17.2,30.21,NW,311,0.0,0.0,21,0.00,CLR,OVC,0.00,WeatherDisplay:10.37,2013-03-03 04:53:00,
2013-03-02 22:58:00,15.8,-17.3,30.21,WNW,299,0.0,0.0,21,0.00,CLR,OVC,0.00,WeatherDisplay:10.37,2013-03-03 04:58:00,
2013-03-02 23:00:00,15.8,-17.3,30.21,WNW,300,0.0,0.0,21,0.00,CLR,OVC,0.00,WeatherDisplay:10.37,2013-03-03 05:00:00,
2013-03-02 23:02:00,15.8,-17.3,30.21,WNW,300,0.0,0.0,21,0.00,CLR,OVC,0.00,WeatherDisplay:10.37,2013-03-03 05:02:00,
2013-03-02 23:03:00,15.8,-17.3,30.21,WNW,300,0.0,0.0,21,0.00,CLR,OVC,0.00,WeatherDisplay:10.37,2013-03-03 05:03:00,
2013-03-02 23:08:00,15.4,-17.6,30.21,WNW,299,0.0,0.0,21,0.00,CLR,OVC,0.00,WeatherDisplay:10.37,2013-03-03 05:08:00,
2013-03-02 23:13:00,15.4,-17.6,30.21,WNW,301,0.0,0.0,21,0.00,CLR,OVC,0.00,WeatherDisplay:10.37,2013-03-03 05:13:00,
2013-03-02 23:18:00,15.3,-15.2,30.21,WNW,298,0.0,0.0,24,0.00,CLR,OVC,0.00,WeatherDisplay:10.37,2013-03-03 05:18:00,
2013-03-02 23:23:00,15.3,-15.2,30.21,WNW,299,0.0,0.0,24,0.00,CLR,OVC,0.00,WeatherDisplay:10.37,2013-03-03 05:23:00,
2013-03-02 23:28:00,15.3,-15.2,30.21,WNW,298,0.0,0.0,24,0.00,CLR,OVC,0.00,WeatherDisplay:10.37,2013-03-03 05:28:00,
2013-03-02 23:33:00,15.3,-15.2,30.21,WNW,298,0.0,0.0,24,0.00,CLR,OVC,0.00,WeatherDisplay:10.37,2013-03-03 05:33:00,
2013-03-02 23:38:00,15.1,-15.3,30.21,WNW,298,0.0,0.0,24,0.00,CLR,OVC,0.00,WeatherDisplay:10.37,2013-03-03 05:38:00,
2013-03-02 23:43:00,15.1,-15.3,30.21,WNW,301,0.0,0.0,24,0.00,CLR,OVC,0.00,WeatherDisplay:10.37,2013-03-03 05:43:00,
2013-03-02 23:48:00,15.1,-15.3,30.21,WNW,301,0.0,0.0,24,0.00,CLR,OVC,0.00,WeatherDisplay:10.37,2013-03-03 05:48:00,
2013-03-02 23:53:00,14.9,-15.5,30.21,WNW,300,0.0,0.0,24,0.00,CLR,OVC,0.00,WeatherDisplay:10.37,2013-03-03 05:53:00,
2013-03-02 23:58:00,14.9,-13.9,30.21,WNW,300,0.0,0.0,26,0.00,CLR,OVC,0.00,WeatherDisplay:10.37,2013-03-03 05:58:00,